sensor_id;sensor_type;location;lat;lon;timestamp;temperature;humidity
34985;DHT22;21190;58.750;17.004;2023-02-02T00:01:30;-0.50;99.90
34985;DHT22;21190;58.750;17.004;2023-02-02T00:03:58;-0.50;99.90
34985;DHT22;21190;58.750;17.004;2023-02-02T00:06:27;-0.50;99.90
34985;DHT22;21190;58.750;17.004;2023-02-02T00:08:56;-0.50;99.90
34985;DHT22;21190;58.750;17.004;2023-02-02T00:11:24;-0.50;99.90
34985;DHT22;21190;58.750;17.004;2023-02-02T00:13:52;-0.60;99.90
34985;DHT22;21190;58.750;17.004;2023-02-02T00:16:32;-0.50;99.90
34985;DHT22;21190;58.750;17.004;2023-02-02T00:21:35;-0.60;99.90
34985;DHT22;21190;58.750;17.004;2023-02-02T00:24:08;-0.60;99.90
34985;DHT22;21190;58.750;17.004;2023-02-02T00:26:37;-0.60;99.90
34985;DHT22;21190;58.750;17.004;2023-02-02T00:29:06;-0.70;99.90
34985;DHT22;21190;58.750;17.004;2023-02-02T00:31:34;-0.70;99.90
34985;DHT22;21190;58.750;17.004;2023-02-02T00:34:01;-0.70;99.90
34985;DHT22;21190;58.750;17.004;2023-02-02T00:36:28;-0.70;99.90
34985;DHT22;21190;58.750;17.004;2023-02-02T00:38:55;-0.70;99.90
34985;DHT22;21190;58.750;17.004;2023-02-02T00:41:23;-0.60;99.90
34985;DHT22;21190;58.750;17.004;2023-02-02T00:43:50;-0.70;99.90
34985;DHT22;21190;58.750;17.004;2023-02-02T00:46:40;-0.70;99.90
34985;DHT22;21190;58.750;17.004;2023-02-02T00:49:08;-0.70;99.90
34985;DHT22;21190;58.750;17.004;2023-02-02T00:51:36;-0.80;99.90
34985;DHT22;21190;58.750;17.004;2023-02-02T00:54:04;-0.70;99.90
34985;DHT22;21190;58.750;17.004;2023-02-02T00:56:31;-0.80;99.90
34985;DHT22;21190;58.750;17.004;2023-02-02T00:58:58;-0.80;99.90
34985;DHT22;21190;58.750;17.004;2023-02-02T01:01:26;-0.80;99.90
34985;DHT22;21190;58.750;17.004;2023-02-02T01:03:53;-0.80;99.90
34985;DHT22;21190;58.750;17.004;2023-02-02T01:06:20;-0.90;99.90
34985;DHT22;21190;58.750;17.004;2023-02-02T01:08:47;-0.90;99.90
34985;DHT22;21190;58.750;17.004;2023-02-02T01:11:15;-0.90;99.90
34985;DHT22;21190;58.750;17.004;2023-02-02T01:13:43;-0.90;99.90
34985;DHT22;21190;58.750;17.004;2023-02-02T01:16:10;-0.80;99.90
34985;DHT22;21190;58.750;17.004;2023-02-02T01:18:38;-0.80;99.90
34985;DHT22;21190;58.750;17.004;2023-02-02T01:21:08;-0.80;99.90
34985;DHT22;21190;58.750;17.004;2023-02-02T01:23:37;-0.80;99.90
34985;DHT22;21190;58.750;17.004;2023-02-02T01:26:06;-0.90;99.90
34985;DHT22;21190;58.750;17.004;2023-02-02T01:28:35;-0.90;99.90
34985;DHT22;21190;58.750;17.004;2023-02-02T01:31:11;-0.90;99.90
34985;DHT22;21190;58.750;17.004;2023-02-02T01:33:38;-1.00;99.90
34985;DHT22;21190;58.750;17.004;2023-02-02T01:36:09;-1.00;99.90
34985;DHT22;21190;58.750;17.004;2023-02-02T01:38:37;-1.00;99.90
34985;DHT22;21190;58.750;17.004;2023-02-02T01:41:04;-1.00;99.90
34985;DHT22;21190;58.750;17.004;2023-02-02T01:46:20;-1.10;99.90
34985;DHT22;21190;58.750;17.004;2023-02-02T01:49:11;-1.10;99.90
34985;DHT22;21190;58.750;17.004;2023-02-02T01:51:57;-1.20;99.90
34985;DHT22;21190;58.750;17.004;2023-02-02T01:54:32;-1.10;99.90
34985;DHT22;21190;58.750;17.004;2023-02-02T01:57:01;-1.20;99.90
34985;DHT22;21190;58.750;17.004;2023-02-02T01:59:30;-1.10;99.90
34985;DHT22;21190;58.750;17.004;2023-02-02T02:01:58;-1.20;99.90
34985;DHT22;21190;58.750;17.004;2023-02-02T02:04:26;-1.20;99.90
34985;DHT22;21190;58.750;17.004;2023-02-02T02:06:55;-1.10;99.90
34985;DHT22;21190;58.750;17.004;2023-02-02T02:09:22;-1.20;99.90
34985;DHT22;21190;58.750;17.004;2023-02-02T02:11:52;-1.10;99.90
34985;DHT22;21190;58.750;17.004;2023-02-02T02:14:20;-1.10;99.90
34985;DHT22;21190;58.750;17.004;2023-02-02T02:37:31;-1.20;99.90
34985;DHT22;21190;58.750;17.004;2023-02-02T02:42:44;-1.30;99.90
34985;DHT22;21190;58.750;17.004;2023-02-02T02:45:13;-1.40;99.90
34985;DHT22;21190;58.750;17.004;2023-02-02T02:47:40;-1.30;99.90
34985;DHT22;21190;58.750;17.004;2023-02-02T02:50:09;-1.20;99.90
34985;DHT22;21190;58.750;17.004;2023-02-02T02:52:37;-1.40;99.90
34985;DHT22;21190;58.750;17.004;2023-02-02T02:55:06;-1.40;99.90
34985;DHT22;21190;58.750;17.004;2023-02-02T03:08:45;-1.40;99.90
34985;DHT22;21190;58.750;17.004;2023-02-02T03:11:14;-1.40;99.90
34985;DHT22;21190;58.750;17.004;2023-02-02T03:13:42;-1.40;99.90
34985;DHT22;21190;58.750;17.004;2023-02-02T03:16:10;-1.50;99.90
34985;DHT22;21190;58.750;17.004;2023-02-02T03:18:37;-1.40;99.90
34985;DHT22;21190;58.750;17.004;2023-02-02T03:21:05;-1.50;99.90
34985;DHT22;21190;58.750;17.004;2023-02-02T03:23:33;-1.40;99.90
34985;DHT22;21190;58.750;17.004;2023-02-02T03:26:00;-1.40;99.90
34985;DHT22;21190;58.750;17.004;2023-02-02T03:28:28;-1.40;99.90
34985;DHT22;21190;58.750;17.004;2023-02-02T03:30:58;-1.40;99.90
34985;DHT22;21190;58.750;17.004;2023-02-02T03:33:27;-1.50;99.90
34985;DHT22;21190;58.750;17.004;2023-02-02T03:35:55;-1.50;99.90
34985;DHT22;21190;58.750;17.004;2023-02-02T03:38:22;-1.40;99.90
34985;DHT22;21190;58.750;17.004;2023-02-02T03:40:50;-1.50;99.90
34985;DHT22;21190;58.750;17.004;2023-02-02T03:43:21;-1.50;99.90
34985;DHT22;21190;58.750;17.004;2023-02-02T03:45:58;-1.40;99.90
34985;DHT22;21190;58.750;17.004;2023-02-02T03:48:26;-1.50;99.90
34985;DHT22;21190;58.750;17.004;2023-02-02T03:50:53;-1.50;99.90
34985;DHT22;21190;58.750;17.004;2023-02-02T03:53:21;-1.50;99.90
34985;DHT22;21190;58.750;17.004;2023-02-02T03:55:47;-1.50;99.90
34985;DHT22;21190;58.750;17.004;2023-02-02T03:58:14;-1.50;99.90
34985;DHT22;21190;58.750;17.004;2023-02-02T04:00:43;-1.60;99.90
34985;DHT22;21190;58.750;17.004;2023-02-02T04:03:10;-1.50;99.90
34985;DHT22;21190;58.750;17.004;2023-02-02T04:05:37;-1.50;99.90
34985;DHT22;21190;58.750;17.004;2023-02-02T04:08:04;-1.50;99.90
34985;DHT22;21190;58.750;17.004;2023-02-02T04:10:31;-1.50;99.90
34985;DHT22;21190;58.750;17.004;2023-02-02T04:12:59;-1.50;99.90
34985;DHT22;21190;58.750;17.004;2023-02-02T04:15:26;-1.50;99.90
34985;DHT22;21190;58.750;17.004;2023-02-02T04:17:53;-1.50;99.90
34985;DHT22;21190;58.750;17.004;2023-02-02T04:20:20;-1.50;99.90
34985;DHT22;21190;58.750;17.004;2023-02-02T04:22:47;-1.50;99.90
34985;DHT22;21190;58.750;17.004;2023-02-02T04:25:14;-1.50;99.90
34985;DHT22;21190;58.750;17.004;2023-02-02T04:27:41;-1.50;99.90
34985;DHT22;21190;58.750;17.004;2023-02-02T04:30:09;-1.50;99.90
34985;DHT22;21190;58.750;17.004;2023-02-02T04:32:36;-1.50;99.90
34985;DHT22;21190;58.750;17.004;2023-02-02T04:35:03;-1.60;99.90
34985;DHT22;21190;58.750;17.004;2023-02-02T04:37:31;-1.60;99.90
34985;DHT22;21190;58.750;17.004;2023-02-02T04:39:58;-1.60;99.90
34985;DHT22;21190;58.750;17.004;2023-02-02T04:42:25;-1.60;99.90
34985;DHT22;21190;58.750;17.004;2023-02-02T04:44:52;-1.70;99.90
34985;DHT22;21190;58.750;17.004;2023-02-02T04:47:19;-1.70;99.90
34985;DHT22;21190;58.750;17.004;2023-02-02T04:49:46;-1.60;99.90
34985;DHT22;21190;58.750;17.004;2023-02-02T04:52:13;-1.80;99.90
34985;DHT22;21190;58.750;17.004;2023-02-02T04:54:40;-1.90;99.90
34985;DHT22;21190;58.750;17.004;2023-02-02T04:57:08;-1.90;99.90
34985;DHT22;21190;58.750;17.004;2023-02-02T04:59:35;-1.90;99.90
34985;DHT22;21190;58.750;17.004;2023-02-02T05:02:02;-1.90;99.90
34985;DHT22;21190;58.750;17.004;2023-02-02T05:04:29;-2.00;99.90
34985;DHT22;21190;58.750;17.004;2023-02-02T05:06:56;-2.00;99.90
34985;DHT22;21190;58.750;17.004;2023-02-02T05:09:23;-2.20;99.90
34985;DHT22;21190;58.750;17.004;2023-02-02T05:11:50;-2.20;99.90
34985;DHT22;21190;58.750;17.004;2023-02-02T05:14:18;-2.30;99.90
34985;DHT22;21190;58.750;17.004;2023-02-02T05:16:45;-2.30;99.90
34985;DHT22;21190;58.750;17.004;2023-02-02T05:19:13;-2.30;99.90
34985;DHT22;21190;58.750;17.004;2023-02-02T05:21:43;-2.20;99.90
34985;DHT22;21190;58.750;17.004;2023-02-02T05:24:11;-2.20;99.90
34985;DHT22;21190;58.750;17.004;2023-02-02T05:26:38;-2.10;99.90
34985;DHT22;21190;58.750;17.004;2023-02-02T05:29:06;-2.30;99.90
34985;DHT22;21190;58.750;17.004;2023-02-02T05:31:34;-2.30;99.90
34985;DHT22;21190;58.750;17.004;2023-02-02T05:34:02;-2.30;99.90
34985;DHT22;21190;58.750;17.004;2023-02-02T05:36:29;-2.40;99.90
34985;DHT22;21190;58.750;17.004;2023-02-02T05:38:56;-2.30;99.90
34985;DHT22;21190;58.750;17.004;2023-02-02T05:41:23;-2.30;99.90
34985;DHT22;21190;58.750;17.004;2023-02-02T05:43:51;-2.30;99.90
34985;DHT22;21190;58.750;17.004;2023-02-02T05:46:18;-2.30;99.90
34985;DHT22;21190;58.750;17.004;2023-02-02T05:48:45;-2.40;99.90
34985;DHT22;21190;58.750;17.004;2023-02-02T05:51:26;-2.20;99.90
34985;DHT22;21190;58.750;17.004;2023-02-02T05:53:54;-2.30;99.90
34985;DHT22;21190;58.750;17.004;2023-02-02T05:56:21;-2.30;99.90
34985;DHT22;21190;58.750;17.004;2023-02-02T05:58:48;-2.30;99.90
34985;DHT22;21190;58.750;17.004;2023-02-02T06:01:17;-2.30;99.90
34985;DHT22;21190;58.750;17.004;2023-02-02T06:03:44;-2.30;99.90
34985;DHT22;21190;58.750;17.004;2023-02-02T06:06:12;-2.20;99.90
34985;DHT22;21190;58.750;17.004;2023-02-02T06:08:40;-2.20;99.90
34985;DHT22;21190;58.750;17.004;2023-02-02T06:11:11;-2.10;99.90
34985;DHT22;21190;58.750;17.004;2023-02-02T06:13:38;-2.10;99.90
34985;DHT22;21190;58.750;17.004;2023-02-02T06:16:05;-2.10;99.90
34985;DHT22;21190;58.750;17.004;2023-02-02T06:18:34;-2.20;99.90
34985;DHT22;21190;58.750;17.004;2023-02-02T06:21:03;-2.30;99.90
34985;DHT22;21190;58.750;17.004;2023-02-02T06:23:32;-2.30;99.90
34985;DHT22;21190;58.750;17.004;2023-02-02T06:25:59;-2.20;99.90
34985;DHT22;21190;58.750;17.004;2023-02-02T06:28:27;-2.20;99.90
34985;DHT22;21190;58.750;17.004;2023-02-02T06:31:05;-2.20;99.90
34985;DHT22;21190;58.750;17.004;2023-02-02T06:33:33;-2.20;99.90
34985;DHT22;21190;58.750;17.004;2023-02-02T06:36:01;-2.20;99.90
34985;DHT22;21190;58.750;17.004;2023-02-02T06:38:29;-2.20;99.90
34985;DHT22;21190;58.750;17.004;2023-02-02T06:41:00;-2.20;99.90
34985;DHT22;21190;58.750;17.004;2023-02-02T06:43:28;-2.20;99.90
34985;DHT22;21190;58.750;17.004;2023-02-02T06:45:58;-2.10;99.90
34985;DHT22;21190;58.750;17.004;2023-02-02T06:48:26;-2.10;99.90
34985;DHT22;21190;58.750;17.004;2023-02-02T06:50:53;-2.10;99.90
34985;DHT22;21190;58.750;17.004;2023-02-02T06:53:23;-2.10;99.90
34985;DHT22;21190;58.750;17.004;2023-02-02T06:56:02;-2.10;99.90
34985;DHT22;21190;58.750;17.004;2023-02-02T06:58:31;-2.20;99.90
34985;DHT22;21190;58.750;17.004;2023-02-02T07:01:05;-2.10;99.90
34985;DHT22;21190;58.750;17.004;2023-02-02T07:03:33;-2.10;99.90
34985;DHT22;21190;58.750;17.004;2023-02-02T07:06:33;-2.10;99.90
34985;DHT22;21190;58.750;17.004;2023-02-02T07:09:00;-2.20;99.90
34985;DHT22;21190;58.750;17.004;2023-02-02T07:11:32;-2.10;99.90
34985;DHT22;21190;58.750;17.004;2023-02-02T07:14:08;-2.10;99.90
34985;DHT22;21190;58.750;17.004;2023-02-02T07:16:35;-2.20;99.90
34985;DHT22;21190;58.750;17.004;2023-02-02T07:19:02;-2.20;99.90
34985;DHT22;21190;58.750;17.004;2023-02-02T07:21:30;-2.10;99.90
34985;DHT22;21190;58.750;17.004;2023-02-02T07:24:03;-2.20;99.90
34985;DHT22;21190;58.750;17.004;2023-02-02T07:26:32;-2.20;99.90
34985;DHT22;21190;58.750;17.004;2023-02-02T07:29:00;-2.20;99.90
34985;DHT22;21190;58.750;17.004;2023-02-02T07:31:27;-2.20;99.90
34985;DHT22;21190;58.750;17.004;2023-02-02T07:33:55;-2.20;99.90
34985;DHT22;21190;58.750;17.004;2023-02-02T07:36:23;-2.30;99.90
34985;DHT22;21190;58.750;17.004;2023-02-02T07:38:52;-2.30;99.90
34985;DHT22;21190;58.750;17.004;2023-02-02T07:41:33;-2.30;99.90
34985;DHT22;21190;58.750;17.004;2023-02-02T07:44:00;-2.30;99.90
34985;DHT22;21190;58.750;17.004;2023-02-02T07:46:27;-2.30;99.90
34985;DHT22;21190;58.750;17.004;2023-02-02T07:48:55;-2.20;99.90
34985;DHT22;21190;58.750;17.004;2023-02-02T07:51:23;-2.30;99.90
34985;DHT22;21190;58.750;17.004;2023-02-02T07:53:52;-2.30;99.90
34985;DHT22;21190;58.750;17.004;2023-02-02T07:56:22;-2.30;99.90
34985;DHT22;21190;58.750;17.004;2023-02-02T07:58:51;-2.30;99.90
34985;DHT22;21190;58.750;17.004;2023-02-02T08:01:18;-2.30;99.90
34985;DHT22;21190;58.750;17.004;2023-02-02T08:03:49;-2.30;99.90
34985;DHT22;21190;58.750;17.004;2023-02-02T08:06:25;-2.40;99.90
34985;DHT22;21190;58.750;17.004;2023-02-02T08:08:54;-2.40;99.90
34985;DHT22;21190;58.750;17.004;2023-02-02T08:11:22;-2.40;99.90
34985;DHT22;21190;58.750;17.004;2023-02-02T08:13:52;-2.40;99.90
34985;DHT22;21190;58.750;17.004;2023-02-02T08:16:20;-2.40;99.90
34985;DHT22;21190;58.750;17.004;2023-02-02T08:18:47;-2.50;99.90
34985;DHT22;21190;58.750;17.004;2023-02-02T08:21:15;-2.50;99.90
34985;DHT22;21190;58.750;17.004;2023-02-02T08:23:43;-2.50;99.90
34985;DHT22;21190;58.750;17.004;2023-02-02T08:26:19;-2.50;99.90
34985;DHT22;21190;58.750;17.004;2023-02-02T08:29:01;-2.40;99.90
34985;DHT22;21190;58.750;17.004;2023-02-02T08:31:31;-2.30;99.90
34985;DHT22;21190;58.750;17.004;2023-02-02T08:33:58;-2.20;99.90
34985;DHT22;21190;58.750;17.004;2023-02-02T08:36:27;-2.10;99.90
34985;DHT22;21190;58.750;17.004;2023-02-02T08:38:55;-2.20;99.90
34985;DHT22;21190;58.750;17.004;2023-02-02T08:41:28;-2.10;99.90
34985;DHT22;21190;58.750;17.004;2023-02-02T08:43:55;-2.10;99.90
34985;DHT22;21190;58.750;17.004;2023-02-02T08:46:23;-2.10;99.90
34985;DHT22;21190;58.750;17.004;2023-02-02T08:48:50;-2.20;99.90
34985;DHT22;21190;58.750;17.004;2023-02-02T08:51:18;-2.20;99.90
34985;DHT22;21190;58.750;17.004;2023-02-02T08:53:46;-2.20;99.90
34985;DHT22;21190;58.750;17.004;2023-02-02T08:56:15;-2.30;99.90
34985;DHT22;21190;58.750;17.004;2023-02-02T08:58:47;-2.20;99.90
34985;DHT22;21190;58.750;17.004;2023-02-02T09:01:17;-2.20;99.90
34985;DHT22;21190;58.750;17.004;2023-02-02T09:03:44;-2.10;99.90
34985;DHT22;21190;58.750;17.004;2023-02-02T09:06:17;-2.10;99.90
34985;DHT22;21190;58.750;17.004;2023-02-02T09:08:45;-2.10;99.90
34985;DHT22;21190;58.750;17.004;2023-02-02T09:11:15;-2.20;99.90
34985;DHT22;21190;58.750;17.004;2023-02-02T09:13:44;-2.20;99.90
34985;DHT22;21190;58.750;17.004;2023-02-02T09:16:13;-2.30;99.90
34985;DHT22;21190;58.750;17.004;2023-02-02T09:18:41;-2.30;99.90
34985;DHT22;21190;58.750;17.004;2023-02-02T09:21:12;-2.10;99.90
34985;DHT22;21190;58.750;17.004;2023-02-02T09:23:40;-2.10;99.90
34985;DHT22;21190;58.750;17.004;2023-02-02T09:28:37;-2.00;99.90
34985;DHT22;21190;58.750;17.004;2023-02-02T09:31:05;-2.10;99.90
34985;DHT22;21190;58.750;17.004;2023-02-02T09:33:32;-2.00;99.90
34985;DHT22;21190;58.750;17.004;2023-02-02T09:36:14;-2.10;99.90
34985;DHT22;21190;58.750;17.004;2023-02-02T09:38:43;-2.10;99.90
34985;DHT22;21190;58.750;17.004;2023-02-02T09:49:10;-2.10;99.90
34985;DHT22;21190;58.750;17.004;2023-02-02T09:51:46;-2.00;99.90
34985;DHT22;21190;58.750;17.004;2023-02-02T09:54:20;-2.00;99.90
34985;DHT22;21190;58.750;17.004;2023-02-02T09:56:52;-2.10;99.90
34985;DHT22;21190;58.750;17.004;2023-02-02T09:59:28;-2.10;99.90
34985;DHT22;21190;58.750;17.004;2023-02-02T10:02:04;-2.10;99.90
34985;DHT22;21190;58.750;17.004;2023-02-02T10:04:38;-2.10;99.90
34985;DHT22;21190;58.750;17.004;2023-02-02T10:07:11;-2.10;99.90
34985;DHT22;21190;58.750;17.004;2023-02-02T10:12:42;-2.10;99.90
34985;DHT22;21190;58.750;17.004;2023-02-02T10:21:05;-1.80;99.90
34985;DHT22;21190;58.750;17.004;2023-02-02T10:23:38;-1.80;99.90
34985;DHT22;21190;58.750;17.004;2023-02-02T10:26:26;-1.80;99.90
34985;DHT22;21190;58.750;17.004;2023-02-02T10:45:34;-1.70;99.90
34985;DHT22;21190;58.750;17.004;2023-02-02T10:48:03;-1.70;99.90
34985;DHT22;21190;58.750;17.004;2023-02-02T10:50:34;-1.60;99.90
34985;DHT22;21190;58.750;17.004;2023-02-02T10:53:03;-1.60;99.90
34985;DHT22;21190;58.750;17.004;2023-02-02T10:55:48;-1.60;99.90
34985;DHT22;21190;58.750;17.004;2023-02-02T10:58:25;-1.60;99.90
34985;DHT22;21190;58.750;17.004;2023-02-02T11:00:55;-1.70;99.90
34985;DHT22;21190;58.750;17.004;2023-02-02T11:03:28;-1.80;99.90
34985;DHT22;21190;58.750;17.004;2023-02-02T11:06:01;-1.70;99.90
34985;DHT22;21190;58.750;17.004;2023-02-02T11:08:49;-1.70;99.90
34985;DHT22;21190;58.750;17.004;2023-02-02T11:14:55;-1.70;99.90
34985;DHT22;21190;58.750;17.004;2023-02-02T11:17:25;-1.70;99.90
34985;DHT22;21190;58.750;17.004;2023-02-02T11:19:53;-1.70;99.90
34985;DHT22;21190;58.750;17.004;2023-02-02T11:22:35;-1.70;99.90
34985;DHT22;21190;58.750;17.004;2023-02-02T11:25:07;-1.60;99.90
34985;DHT22;21190;58.750;17.004;2023-02-02T11:27:48;-1.50;99.90
34985;DHT22;21190;58.750;17.004;2023-02-02T11:32:48;-1.50;99.90
34985;DHT22;21190;58.750;17.004;2023-02-02T11:35:22;-1.40;99.90
34985;DHT22;21190;58.750;17.004;2023-02-02T11:38:22;-1.40;99.90
34985;DHT22;21190;58.750;17.004;2023-02-02T11:45:59;-1.40;99.90
34985;DHT22;21190;58.750;17.004;2023-02-02T11:48:36;-1.30;99.90
34985;DHT22;21190;58.750;17.004;2023-02-02T11:51:05;-1.40;99.90
34985;DHT22;21190;58.750;17.004;2023-02-02T11:53:45;-1.30;99.90
34985;DHT22;21190;58.750;17.004;2023-02-02T11:56:23;-1.30;99.90
34985;DHT22;21190;58.750;17.004;2023-02-02T11:58:55;-1.20;99.90
34985;DHT22;21190;58.750;17.004;2023-02-02T12:01:30;-1.20;99.90
34985;DHT22;21190;58.750;17.004;2023-02-02T12:04:08;-1.10;99.90
34985;DHT22;21190;58.750;17.004;2023-02-02T12:06:47;-1.10;99.90
34985;DHT22;21190;58.750;17.004;2023-02-02T12:09:20;-1.20;99.90
34985;DHT22;21190;58.750;17.004;2023-02-02T12:12:02;-1.20;99.90
34985;DHT22;21190;58.750;17.004;2023-02-02T12:17:33;-1.20;99.90
34985;DHT22;21190;58.750;17.004;2023-02-02T12:23:33;-1.20;99.90
34985;DHT22;21190;58.750;17.004;2023-02-02T12:28:44;-1.10;99.90
34985;DHT22;21190;58.750;17.004;2023-02-02T12:39:19;-1.10;99.90
34985;DHT22;21190;58.750;17.004;2023-02-02T12:44:51;-1.10;99.90
34985;DHT22;21190;58.750;17.004;2023-02-02T12:55:46;-1.10;99.90
34985;DHT22;21190;58.750;17.004;2023-02-02T12:58:41;-1.00;99.90
34985;DHT22;21190;58.750;17.004;2023-02-02T13:04:29;-1.00;99.90
34985;DHT22;21190;58.750;17.004;2023-02-02T13:12:41;-1.10;99.90
34985;DHT22;21190;58.750;17.004;2023-02-02T13:15:13;-1.10;99.90
34985;DHT22;21190;58.750;17.004;2023-02-02T13:17:59;-1.20;99.90
34985;DHT22;21190;58.750;17.004;2023-02-02T13:22:59;-1.20;99.90
34985;DHT22;21190;58.750;17.004;2023-02-02T13:25:36;-1.30;99.90
34985;DHT22;21190;58.750;17.004;2023-02-02T13:28:14;-1.30;99.90
34985;DHT22;21190;58.750;17.004;2023-02-02T13:30:44;-1.20;99.90
34985;DHT22;21190;58.750;17.004;2023-02-02T13:33:18;-1.30;99.90
34985;DHT22;21190;58.750;17.004;2023-02-02T13:35:56;-1.30;99.90
34985;DHT22;21190;58.750;17.004;2023-02-02T13:38:27;-1.20;99.90
34985;DHT22;21190;58.750;17.004;2023-02-02T13:41:01;-1.10;99.90
34985;DHT22;21190;58.750;17.004;2023-02-02T13:48:51;-1.20;99.90
34985;DHT22;21190;58.750;17.004;2023-02-02T14:02:28;-1.30;99.90
34985;DHT22;21190;58.750;17.004;2023-02-02T14:05:00;-1.30;99.90
34985;DHT22;21190;58.750;17.004;2023-02-02T14:07:44;-1.30;99.90
34985;DHT22;21190;58.750;17.004;2023-02-02T14:10:32;-1.40;99.90
34985;DHT22;21190;58.750;17.004;2023-02-02T14:16:01;-1.50;99.90
34985;DHT22;21190;58.750;17.004;2023-02-02T14:23:58;-1.50;99.90
34985;DHT22;21190;58.750;17.004;2023-02-02T14:34:52;-1.50;99.90
34985;DHT22;21190;58.750;17.004;2023-02-02T14:49:05;-1.70;99.90
34985;DHT22;21190;58.750;17.004;2023-02-02T14:51:44;-1.70;99.90
34985;DHT22;21190;58.750;17.004;2023-02-02T14:54:26;-1.70;99.90
34985;DHT22;21190;58.750;17.004;2023-02-02T14:57:01;-1.70;99.90
34985;DHT22;21190;58.750;17.004;2023-02-02T14:59:37;-1.70;99.90
34985;DHT22;21190;58.750;17.004;2023-02-02T15:02:37;-1.80;99.90
34985;DHT22;21190;58.750;17.004;2023-02-02T15:13:20;-1.90;99.90
34985;DHT22;21190;58.750;17.004;2023-02-02T15:15:48;-1.80;99.90
34985;DHT22;21190;58.750;17.004;2023-02-02T15:18:26;-1.80;99.90
34985;DHT22;21190;58.750;17.004;2023-02-02T15:20:55;-1.90;99.90
34985;DHT22;21190;58.750;17.004;2023-02-02T15:23:29;-2.00;99.90
34985;DHT22;21190;58.750;17.004;2023-02-02T15:31:36;-2.00;99.90
34985;DHT22;21190;58.750;17.004;2023-02-02T15:36:40;-2.10;99.90
34985;DHT22;21190;58.750;17.004;2023-02-02T15:39:31;-2.20;99.90
34985;DHT22;21190;58.750;17.004;2023-02-02T15:42:02;-2.10;99.90
34985;DHT22;21190;58.750;17.004;2023-02-02T15:44:49;-2.10;99.90
34985;DHT22;21190;58.750;17.004;2023-02-02T15:47:19;-2.10;99.90
34985;DHT22;21190;58.750;17.004;2023-02-02T15:49:51;-2.20;99.90
34985;DHT22;21190;58.750;17.004;2023-02-02T15:52:25;-2.20;99.90
34985;DHT22;21190;58.750;17.004;2023-02-02T15:54:57;-2.30;99.90
34985;DHT22;21190;58.750;17.004;2023-02-02T15:57:28;-2.30;99.90
34985;DHT22;21190;58.750;17.004;2023-02-02T15:59:55;-2.30;99.90
34985;DHT22;21190;58.750;17.004;2023-02-02T16:02:34;-2.20;99.90
34985;DHT22;21190;58.750;17.004;2023-02-02T16:05:22;-2.30;99.90
34985;DHT22;21190;58.750;17.004;2023-02-02T16:07:51;-2.30;99.90
34985;DHT22;21190;58.750;17.004;2023-02-02T16:10:31;-2.30;99.90
34985;DHT22;21190;58.750;17.004;2023-02-02T16:12:58;-2.30;99.90
34985;DHT22;21190;58.750;17.004;2023-02-02T16:15:27;-2.30;99.90
34985;DHT22;21190;58.750;17.004;2023-02-02T16:17:58;-2.30;99.90
34985;DHT22;21190;58.750;17.004;2023-02-02T16:20:27;-2.40;99.90
34985;DHT22;21190;58.750;17.004;2023-02-02T16:22:56;-2.50;99.90
34985;DHT22;21190;58.750;17.004;2023-02-02T16:25:33;-2.50;99.90
34985;DHT22;21190;58.750;17.004;2023-02-02T16:28:03;-2.50;99.90
34985;DHT22;21190;58.750;17.004;2023-02-02T16:30:32;-2.60;99.90
34985;DHT22;21190;58.750;17.004;2023-02-02T16:36:01;-2.70;99.90
34985;DHT22;21190;58.750;17.004;2023-02-02T16:38:35;-2.80;99.90
34985;DHT22;21190;58.750;17.004;2023-02-02T16:41:06;-2.80;99.90
34985;DHT22;21190;58.750;17.004;2023-02-02T16:43:35;-2.90;99.90
34985;DHT22;21190;58.750;17.004;2023-02-02T16:46:05;-3.00;99.90
34985;DHT22;21190;58.750;17.004;2023-02-02T16:48:35;-2.90;99.90
34985;DHT22;21190;58.750;17.004;2023-02-02T16:53:43;-3.00;99.90
34985;DHT22;21190;58.750;17.004;2023-02-02T16:59:18;-2.90;99.90
34985;DHT22;21190;58.750;17.004;2023-02-02T17:01:54;-2.80;99.90
34985;DHT22;21190;58.750;17.004;2023-02-02T17:04:26;-2.90;99.90
34985;DHT22;21190;58.750;17.004;2023-02-02T17:06:56;-3.00;99.90
34985;DHT22;21190;58.750;17.004;2023-02-02T17:09:33;-3.10;99.90
34985;DHT22;21190;58.750;17.004;2023-02-02T17:12:03;-3.10;99.90
34985;DHT22;21190;58.750;17.004;2023-02-02T17:14:55;-3.20;99.90
34985;DHT22;21190;58.750;17.004;2023-02-02T17:17:31;-3.30;99.90
34985;DHT22;21190;58.750;17.004;2023-02-02T17:19:58;-3.30;99.90
34985;DHT22;21190;58.750;17.004;2023-02-02T17:22:26;-3.40;99.90
34985;DHT22;21190;58.750;17.004;2023-02-02T17:24:53;-3.40;99.90
34985;DHT22;21190;58.750;17.004;2023-02-02T17:27:32;-3.40;99.90
34985;DHT22;21190;58.750;17.004;2023-02-02T17:30:03;-3.40;99.90
34985;DHT22;21190;58.750;17.004;2023-02-02T17:32:30;-3.50;99.90
34985;DHT22;21190;58.750;17.004;2023-02-02T17:34:57;-3.50;99.90
34985;DHT22;21190;58.750;17.004;2023-02-02T17:37:24;-3.50;99.90
34985;DHT22;21190;58.750;17.004;2023-02-02T17:39:51;-3.50;99.90
34985;DHT22;21190;58.750;17.004;2023-02-02T17:42:26;-3.60;99.90
34985;DHT22;21190;58.750;17.004;2023-02-02T17:44:53;-3.50;99.90
34985;DHT22;21190;58.750;17.004;2023-02-02T17:47:20;-3.60;99.90
34985;DHT22;21190;58.750;17.004;2023-02-02T17:49:47;-3.60;99.90
34985;DHT22;21190;58.750;17.004;2023-02-02T17:52:14;-3.70;99.90
34985;DHT22;21190;58.750;17.004;2023-02-02T17:54:41;-3.70;99.90
34985;DHT22;21190;58.750;17.004;2023-02-02T17:57:08;-3.70;99.90
34985;DHT22;21190;58.750;17.004;2023-02-02T17:59:35;-3.70;99.90
34985;DHT22;21190;58.750;17.004;2023-02-02T18:02:03;-3.70;99.90
34985;DHT22;21190;58.750;17.004;2023-02-02T18:04:29;-3.70;99.90
34985;DHT22;21190;58.750;17.004;2023-02-02T18:06:56;-3.70;99.90
34985;DHT22;21190;58.750;17.004;2023-02-02T18:09:24;-3.80;99.90
34985;DHT22;21190;58.750;17.004;2023-02-02T18:11:51;-3.70;99.90
34985;DHT22;21190;58.750;17.004;2023-02-02T18:14:18;-3.80;99.90
34985;DHT22;21190;58.750;17.004;2023-02-02T18:16:45;-3.90;99.90
34985;DHT22;21190;58.750;17.004;2023-02-02T18:19:12;-3.90;99.90
34985;DHT22;21190;58.750;17.004;2023-02-02T18:21:39;-3.90;99.90
34985;DHT22;21190;58.750;17.004;2023-02-02T18:24:06;-3.90;99.90
34985;DHT22;21190;58.750;17.004;2023-02-02T18:26:33;-3.90;99.90
34985;DHT22;21190;58.750;17.004;2023-02-02T18:29:01;-4.00;99.90
34985;DHT22;21190;58.750;17.004;2023-02-02T18:31:28;-4.00;99.90
34985;DHT22;21190;58.750;17.004;2023-02-02T18:33:55;-4.10;99.90
34985;DHT22;21190;58.750;17.004;2023-02-02T18:36:22;-4.10;99.90
34985;DHT22;21190;58.750;17.004;2023-02-02T18:38:50;-4.10;99.90
34985;DHT22;21190;58.750;17.004;2023-02-02T18:41:19;-4.10;99.90
34985;DHT22;21190;58.750;17.004;2023-02-02T18:43:53;-4.10;99.90
34985;DHT22;21190;58.750;17.004;2023-02-02T18:46:20;-4.10;99.90
34985;DHT22;21190;58.750;17.004;2023-02-02T18:48:47;-4.10;99.90
34985;DHT22;21190;58.750;17.004;2023-02-02T18:51:18;-4.10;99.90
34985;DHT22;21190;58.750;17.004;2023-02-02T18:53:47;-4.10;99.90